Time;durP1;ratioP1;P1;durP2;ratioP2;P2;SDS_P1;SDS_P2;PMS_P1;PMS_P2;Temp;Humidity;BMP_temperature;BMP_pressure;BME280_temperature;BME280_humidity;BME280_pressure;Samples;Min_cycle;Max_cycle;Signal;HPM_P1;HPM_P2
2022/09/02 00:00:35;;;;;;;0.30;0.28;;;;;;;16.71;77.42;101509.22;5021683;28;20088;-63
2022/09/02 00:03:01;;;;;;;0.38;0.32;;;;;;;16.72;76.96;101510.00;5017496;28;20037;-64
2022/09/02 00:05:27;;;;;;;1.55;0.32;;;;;;;16.66;77.96;101511.50;5013086;28;20521;-64
2022/09/02 00:07:53;;;;;;;0.40;0.40;;;;;;;16.55;77.85;101508.66;5025743;28;20073;-64
2022/09/02 00:10:19;;;;;;;0.57;0.50;;;;;;;16.52;78.68;101506.69;5024543;28;20589;-64
2022/09/02 00:12:44;;;;;;;0.70;0.47;;;;;;;16.48;78.66;101503.16;5025465;28;20108;-63
2022/09/02 00:15:10;;;;;;;1.00;0.57;;;;;;;16.54;78.20;101500.88;5011500;28;20043;-65
2022/09/02 00:17:35;;;;;;;0.40;0.40;;;;;;;16.41;78.63;101505.00;5025466;28;20494;-64
2022/09/02 00:20:01;;;;;;;0.85;0.50;;;;;;;16.29;79.12;101503.31;5024789;28;20556;-64
2022/09/02 00:22:27;;;;;;;0.40;0.20;;;;;;;16.28;79.01;101494.38;5021143;28;20108;-64
2022/09/02 00:24:52;;;;;;;1.73;0.57;;;;;;;16.36;78.97;101486.28;5024279;28;20038;-64
2022/09/02 00:27:18;;;;;;;0.47;0.40;;;;;;;16.44;78.80;101493.38;5007832;28;20367;-63
2022/09/02 00:29:43;;;;;;;0.30;0.20;;;;;;;16.52;78.98;101495.03;5021012;28;20429;-64
2022/09/02 00:32:09;;;;;;;0.35;0.35;;;;;;;16.42;78.34;101487.50;5007469;28;20030;-64
2022/09/02 00:34:35;;;;;;;0.43;0.30;;;;;;;16.45;78.69;101494.94;5024689;28;20099;-64
2022/09/02 00:37:00;;;;;;;1.52;0.60;;;;;;;16.33;78.83;101487.03;5019343;28;20495;-64
2022/09/02 00:39:26;;;;;;;0.50;0.40;;;;;;;16.22;79.55;101497.78;4987939;28;20026;-64
2022/09/02 00:41:52;;;;;;;0.50;0.32;;;;;;;16.16;79.99;101491.91;5019200;28;20116;-64
2022/09/02 00:44:19;;;;;;;0.38;0.38;;;;;;;16.20;79.90;101495.44;5019666;28;20045;-64
2022/09/02 00:46:45;;;;;;;0.32;0.20;;;;;;;16.20;79.39;101492.72;5024892;28;20437;-64
2022/09/02 00:49:42;;;;;;;0.95;0.43;;;;;;;16.19;79.59;101499.34;5017623;28;20529;-64
2022/09/02 00:52:25;;;;;;;0.68;0.32;;;;;;;16.23;78.97;101497.44;5006724;28;20121;-64
2022/09/02 00:55:03;;;;;;;0.40;0.40;;;;;;;16.10;79.32;101498.06;5016706;28;20048;-64
2022/09/02 00:57:33;;;;;;;0.20;0.20;;;;;;;16.05;79.58;101501.09;5000745;28;20026;-64
2022/09/02 01:00:10;;;;;;;0.30;0.30;;;;;;;16.01;80.04;101503.78;5025471;28;20025;-64
2022/09/02 01:02:39;;;;;;;0.30;0.30;;;;;;;15.87;80.28;101506.31;5020009;28;20036;-64
2022/09/02 01:05:07;;;;;;;0.38;0.38;;;;;;;15.86;80.25;101499.31;5025538;28;20017;-64
2022/09/02 01:07:37;;;;;;;1.30;0.63;;;;;;;15.87;80.41;101503.59;5009289;28;20049;-64
2022/09/02 01:10:08;;;;;;;0.55;0.35;;;;;;;15.78;81.08;101503.09;5028024;28;20095;-64
2022/09/02 01:12:34;;;;;;;0.30;0.30;;;;;;;15.83;81.09;101496.56;5025455;28;20030;-65
2022/09/02 01:15:01;;;;;;;0.38;0.38;;;;;;;15.82;80.84;101497.69;5025149;28;20445;-64
2022/09/02 01:17:28;;;;;;;0.40;0.40;;;;;;;15.83;80.68;101486.47;5013713;28;20033;-64
2022/09/02 01:19:59;;;;;;;0.28;0.28;;;;;;;15.74;81.43;101483.25;5023727;28;20037;-64
2022/09/02 01:22:29;;;;;;;0.52;0.50;;;;;;;15.73;81.18;101492.56;5009792;28;20032;-64
2022/09/02 01:24:59;;;;;;;0.37;0.37;;;;;;;15.73;81.50;101487.13;5024443;28;20079;-64
2022/09/02 01:27:26;;;;;;;0.40;0.40;;;;;;;15.77;81.22;101490.69;5031365;28;20315;-64
2022/09/02 01:29:58;;;;;;;0.77;0.40;;;;;;;15.76;81.15;101485.59;5009789;28;20084;-65
2022/09/02 01:32:26;;;;;;;0.40;0.40;;;;;;;15.68;81.62;101483.97;5008037;28;20130;-64
2022/09/02 01:34:52;;;;;;;0.75;0.47;;;;;;;15.68;81.37;101486.69;5026983;28;20041;-64
2022/09/02 01:37:19;;;;;;;0.43;0.38;;;;;;;15.79;80.87;101479.44;5026125;28;20029;-65
2022/09/02 01:39:45;;;;;;;0.47;0.47;;;;;;;15.92;80.56;101484.25;5008420;28;20519;-64
2022/09/02 01:42:11;;;;;;;0.30;0.30;;;;;;;15.98;80.45;101480.06;5029598;28;20029;-64
2022/09/02 01:44:42;;;;;;;0.43;0.43;;;;;;;15.77;80.90;101487.97;5020895;28;20506;-64
2022/09/02 01:47:11;;;;;;;0.88;0.45;;;;;;;15.74;80.81;101480.53;5022748;28;20029;-64
2022/09/02 01:49:36;;;;;;;0.20;0.20;;;;;;;15.69;81.19;101478.16;5023832;28;20072;-64
2022/09/02 01:52:03;;;;;;;0.60;0.30;;;;;;;15.59;81.83;101475.28;5029186;28;20056;-64
2022/09/02 01:54:30;;;;;;;0.57;0.43;;;;;;;15.65;81.84;101476.53;5024789;28;20372;-64
2022/09/02 01:56:56;;;;;;;0.65;0.50;;;;;;;15.71;81.33;101480.50;5008458;28;20040;-64
2022/09/02 01:59:22;;;;;;;0.60;0.40;;;;;;;15.55;81.87;101472.53;5008393;28;20512;-65
2022/09/02 02:01:48;;;;;;;0.50;0.38;;;;;;;15.73;81.41;101478.19;5010473;28;20176;-65
2022/09/02 02:04:14;;;;;;;0.20;0.20;;;;;;;15.71;81.41;101469.63;5006101;28;20025;-65
2022/09/02 02:06:44;;;;;;;0.30;0.30;;;;;;;15.73;81.04;101468.13;5021644;28;20044;-65
2022/09/02 02:09:11;;;;;;;0.47;0.32;;;;;;;15.66;81.29;101469.97;5023341;28;20471;-65
2022/09/02 02:11:37;;;;;;;1.00;0.50;;;;;;;15.70;81.14;101468.09;5027937;28;20401;-65
2022/09/02 02:14:04;;;;;;;0.57;0.30;;;;;;;15.66;81.44;101464.53;5012312;28;20052;-64
2022/09/02 02:16:30;;;;;;;0.65;0.30;;;;;;;15.52;81.70;101467.84;5010152;28;20159;-65
2022/09/02 02:18:56;;;;;;;0.77;0.50;;;;;;;15.52;81.96;101457.00;5020976;28;20056;-65
2022/09/02 02:21:22;;;;;;;0.35;0.35;;;;;;;15.61;81.52;101459.41;5029206;28;20520;-64
2022/09/02 02:23:49;;;;;;;0.30;0.30;;;;;;;15.48;82.12;101460.81;5004851;28;20569;-65
2022/09/02 02:26:15;;;;;;;1.50;0.35;;;;;;;15.48;82.44;101467.03;5027165;28;20044;-64
2022/09/02 02:28:42;;;;;;;0.50;0.40;;;;;;;15.53;81.99;101463.97;5013095;28;20034;-64
2022/09/02 02:31:08;;;;;;;0.70;0.50;;;;;;;15.49;81.88;101460.44;5004860;28;20037;-65
2022/09/02 02:33:54;;;;;;;0.28;0.25;;;;;;;15.49;82.29;101451.50;5003574;28;20639;-64
2022/09/02 02:36:21;;;;;;;4.00;0.50;;;;;;;15.53;82.16;101450.41;4933390;29;20546;-65
2022/09/02 02:38:49;;;;;;;1.35;0.60;;;;;;;15.58;81.92;101450.06;4929391;29;20143;-65
2022/09/02 02:41:15;;;;;;;0.35;0.35;;;;;;;15.60;82.03;101453.19;4927350;29;20046;-64
2022/09/02 02:43:42;;;;;;;1.05;0.40;;;;;;;15.58;81.82;101458.22;4911239;29;20142;-65
2022/09/02 02:46:08;;;;;;;0.32;0.32;;;;;;;15.51;81.84;101451.91;4914068;29;20054;-65
2022/09/02 02:48:35;;;;;;;0.50;0.35;;;;;;;15.46;82.12;101447.59;4914972;29;20063;-65
2022/09/02 02:51:01;;;;;;;0.40;0.40;;;;;;;15.39;82.28;101452.88;4931042;29;20036;-65
2022/09/02 02:53:30;;;;;;;0.50;0.45;;;;;;;15.44;82.56;101449.91;4920450;29;20115;-64
2022/09/02 02:55:57;;;;;;;0.43;0.40;;;;;;;15.45;82.32;101450.69;4929066;29;20114;-64
2022/09/02 02:58:22;;;;;;;0.57;0.50;;;;;;;15.46;82.24;101446.81;4919536;29;20078;-65
2022/09/02 03:00:49;;;;;;;0.88;0.50;;;;;;;15.47;82.01;101449.16;4932370;29;20079;-63
2022/09/02 03:03:18;;;;;;;0.30;0.20;;;;;;;15.38;82.20;101446.69;4918470;29;20113;-64
2022/09/02 03:05:46;;;;;;;0.70;0.38;;;;;;;15.28;82.68;101443.81;4926929;29;20050;-65
2022/09/02 03:08:12;;;;;;;0.85;0.50;;;;;;;15.29;82.66;101448.88;4922297;29;20264;-63
2022/09/02 03:10:40;;;;;;;0.77;0.45;;;;;;;15.26;83.09;101433.34;4903029;29;20032;-63
2022/09/02 03:13:08;;;;;;;0.50;0.38;;;;;;;15.27;83.03;101443.03;4961075;28;20410;-63
2022/09/02 03:15:37;;;;;;;0.38;0.30;;;;;;;15.17;83.26;101442.91;5005802;28;20092;-63
2022/09/02 03:18:04;;;;;;;0.63;0.52;;;;;;;15.08;83.59;101443.16;5002975;28;20021;-63
2022/09/02 03:20:30;;;;;;;0.47;0.25;;;;;;;15.12;83.89;101438.56;5006567;28;20044;-64
2022/09/02 03:22:58;;;;;;;0.40;0.40;;;;;;;15.11;83.76;101436.22;5023836;28;20033;-63
2022/09/02 03:25:26;;;;;;;0.40;0.40;;;;;;;15.09;84.00;101436.59;5006990;28;20079;-63
2022/09/02 03:27:54;;;;;;;3.05;0.50;;;;;;;15.23;83.85;101433.28;5014937;28;20026;-63
2022/09/02 03:30:25;;;;;;;0.65;0.40;;;;;;;15.26;83.45;101432.53;5006150;28;20482;-64
2022/09/02 03:32:53;;;;;;;0.45;0.45;;;;;;;15.21;83.31;101439.06;5026239;28;20037;-64
2022/09/02 03:35:21;;;;;;;0.30;0.30;;;;;;;15.22;83.29;101440.66;5006835;28;20029;-64
2022/09/02 03:37:47;;;;;;;0.60;0.50;;;;;;;15.28;83.26;101431.03;5009828;28;20057;-64
2022/09/02 03:40:16;;;;;;;0.47;0.40;;;;;;;15.22;83.47;101437.13;5026917;28;20029;-64
2022/09/02 03:42:41;;;;;;;0.90;0.60;;;;;;;15.14;83.59;101438.19;5022364;28;20482;-64
2022/09/02 03:45:08;;;;;;;0.50;0.50;;;;;;;15.16;83.73;101444.03;5024839;28;20112;-64
2022/09/02 03:47:35;;;;;;;0.30;0.30;;;;;;;15.17;83.69;101434.75;5010549;28;20029;-64
2022/09/02 03:50:03;;;;;;;0.40;0.40;;;;;;;15.09;84.03;101425.72;5023981;28;20060;-64
2022/09/02 03:52:29;;;;;;;0.40;0.30;;;;;;;15.10;84.00;101429.22;5020043;28;20041;-64
2022/09/02 03:54:55;;;;;;;0.45;0.45;;;;;;;15.23;83.79;101422.44;5003534;28;20414;-64
2022/09/02 03:57:24;;;;;;;0.30;0.30;;;;;;;15.23;83.43;101422.44;5004101;28;20081;-64
2022/09/02 03:59:51;;;;;;;0.55;0.40;;;;;;;15.25;83.33;101425.56;5023571;28;20441;-64
2022/09/02 04:02:17;;;;;;;0.88;0.50;;;;;;;15.12;83.78;101426.91;5022386;28;20029;-64
2022/09/02 04:04:43;;;;;;;1.00;0.80;;;;;;;15.21;83.67;101430.91;5007452;28;20025;-64
2022/09/02 04:07:09;;;;;;;0.60;0.50;;;;;;;15.38;83.01;101422.25;5006236;28;20018;-64
2022/09/02 04:09:34;;;;;;;0.52;0.47;;;;;;;15.39;82.76;101423.81;5024493;28;20043;-64
2022/09/02 04:12:00;;;;;;;1.42;0.47;;;;;;;15.33;82.67;101422.56;5011675;28;20122;-64
2022/09/02 04:14:26;;;;;;;0.32;0.32;;;;;;;15.36;83.04;101424.56;4984803;28;20083;-64
2022/09/02 04:16:51;;;;;;;0.60;0.40;;;;;;;15.32;82.21;101425.66;5001557;28;20470;-64
2022/09/02 04:19:18;;;;;;;0.73;0.50;;;;;;;15.15;83.62;101418.84;5010642;28;20504;-64
2022/09/02 04:21:43;;;;;;;0.40;0.40;;;;;;;15.28;83.29;101430.25;5001854;28;20072;-63
2022/09/02 04:24:11;;;;;;;1.58;0.52;;;;;;;15.34;82.59;101418.72;5009686;28;20037;-63
2022/09/02 04:26:39;;;;;;;0.57;0.50;;;;;;;15.19;83.56;101421.59;5021284;28;20061;-63
2022/09/02 04:29:06;;;;;;;3.58;0.50;;;;;;;15.20;83.61;101423.16;5002520;28;21456;-63
2022/09/02 04:31:33;;;;;;;1.05;0.50;;;;;;;15.07;84.12;101421.81;5010700;28;20033;-63
2022/09/02 04:33:59;;;;;;;0.50;0.47;;;;;;;15.25;83.36;101422.84;5026486;28;20041;-63
2022/09/02 04:36:26;;;;;;;0.30;0.30;;;;;;;15.19;83.68;101427.03;5006295;28;20029;-63
2022/09/02 04:38:55;;;;;;;0.50;0.43;;;;;;;15.11;84.06;101426.16;5008215;28;20645;-64
2022/09/02 04:41:27;;;;;;;0.52;0.52;;;;;;;15.08;84.00;101426.88;5011265;28;20025;-63
2022/09/02 04:43:57;;;;;;;0.50;0.45;;;;;;;15.09;84.51;101433.09;5005739;28;20057;-63
2022/09/02 04:46:26;;;;;;;0.70;0.60;;;;;;;15.11;84.62;101428.06;5022288;28;20053;-64
2022/09/02 04:48:53;;;;;;;0.60;0.50;;;;;;;15.16;84.41;101425.03;5013368;28;20033;-64
2022/09/02 04:51:21;;;;;;;0.47;0.40;;;;;;;14.94;84.80;101431.31;5031416;28;20036;-64
2022/09/02 04:53:49;;;;;;;0.55;0.50;;;;;;;15.00;84.60;101427.91;5022228;28;20406;-63
2022/09/02 04:56:20;;;;;;;0.43;0.30;;;;;;;15.08;84.58;101431.50;5013457;28;20087;-64
2022/09/02 04:58:46;;;;;;;0.50;0.50;;;;;;;15.15;84.44;101432.41;5009052;28;20112;-64
2022/09/02 05:01:15;;;;;;;0.98;0.43;;;;;;;15.08;84.59;101432.28;5010136;28;20065;-64
2022/09/02 05:04:02;;;;;;;0.88;0.65;;;;;;;15.12;84.74;101432.34;5029255;28;20034;-64
2022/09/02 05:06:35;;;;;;;0.73;0.40;;;;;;;15.31;84.10;101438.44;4952511;28;20039;-64
2022/09/02 05:09:03;;;;;;;0.40;0.40;;;;;;;15.23;83.99;101438.72;4961181;28;20060;-64
2022/09/02 05:11:32;;;;;;;0.98;0.60;;;;;;;15.34;83.86;101437.72;4959945;28;20547;-64
2022/09/02 05:14:03;;;;;;;0.50;0.47;;;;;;;15.29;83.70;101437.25;4925810;28;20449;-63
2022/09/02 05:16:35;;;;;;;0.93;0.47;;;;;;;15.31;83.87;101443.88;4966284;28;20027;-64
2022/09/02 05:19:03;;;;;;;0.68;0.40;;;;;;;15.37;83.78;101441.59;4950986;28;20028;-64
2022/09/02 05:21:42;;;;;;;0.65;0.50;;;;;;;15.36;83.90;101443.56;4970418;28;20062;-64
2022/09/02 05:24:11;;;;;;;0.80;0.50;;;;;;;15.42;83.50;101440.56;4952865;28;20503;-64
2022/09/02 05:26:37;;;;;;;0.63;0.55;;;;;;;15.49;82.97;101440.63;4962809;28;20031;-65
2022/09/02 05:29:05;;;;;;;1.10;0.60;;;;;;;15.51;83.12;101439.13;4963417;28;20604;-64
2022/09/02 05:31:33;;;;;;;0.88;0.60;;;;;;;15.52;82.97;101446.13;4944620;28;20144;-64
2022/09/02 05:33:59;;;;;;;0.40;0.40;;;;;;;15.58;83.41;101438.44;4945277;28;20038;-64
2022/09/02 05:36:26;;;;;;;0.50;0.50;;;;;;;15.53;83.61;101444.97;4949442;28;20030;-63
2022/09/02 05:38:53;;;;;;;2.22;0.40;;;;;;;15.53;83.88;101444.97;4944668;28;20117;-64
2022/09/02 05:41:24;;;;;;;0.50;0.40;;;;;;;15.56;84.20;101449.69;4968257;28;20385;-63
2022/09/02 05:43:56;;;;;;;0.77;0.60;;;;;;;15.70;83.05;101441.69;5003727;28;20049;-63
2022/09/02 05:46:23;;;;;;;4.03;0.90;;;;;;;15.72;83.22;101447.53;5004990;28;20030;-64
2022/09/02 05:49:16;;;;;;;1.00;0.60;;;;;;;15.72;83.10;101450.25;5005599;28;20402;-64
2022/09/02 05:51:46;;;;;;;0.95;0.70;;;;;;;15.73;83.63;101451.03;5005612;28;20077;-64
2022/09/02 05:54:20;;;;;;;2.03;0.60;;;;;;;15.71;83.71;101450.63;5012011;28;20041;-64
2022/09/02 05:56:50;;;;;;;0.50;0.40;;;;;;;15.70;84.22;101447.13;5013298;28;20057;-63
2022/09/02 05:59:19;;;;;;;0.43;0.35;;;;;;;15.77;83.95;101452.66;5027044;28;20034;-64
2022/09/02 06:01:46;;;;;;;0.70;0.63;;;;;;;15.94;83.21;101441.22;5026894;28;20623;-64
2022/09/02 06:04:12;;;;;;;1.00;0.50;;;;;;;15.81;83.16;101441.81;5009038;28;20402;-64
2022/09/02 06:06:38;;;;;;;0.70;0.60;;;;;;;15.92;82.87;101443.50;5016308;28;20116;-63
2022/09/02 06:09:08;;;;;;;0.93;0.47;;;;;;;15.96;83.08;101440.84;5010402;28;20033;-63
2022/09/02 06:11:38;;;;;;;0.70;0.57;;;;;;;16.05;82.51;101455.69;5013553;28;20029;-63
2022/09/02 06:14:06;;;;;;;0.60;0.60;;;;;;;16.06;82.96;101442.88;5011328;28;20037;-63
2022/09/02 06:16:36;;;;;;;0.63;0.50;;;;;;;16.15;82.54;101444.16;5014201;28;20048;-63
2022/09/02 06:19:03;;;;;;;0.70;0.40;;;;;;;16.23;82.14;101442.28;5009082;28;20041;-63
2022/09/02 06:21:31;;;;;;;0.50;0.30;;;;;;;16.27;81.84;101438.47;5027473;28;20040;-63
2022/09/02 06:23:58;;;;;;;0.55;0.43;;;;;;;16.27;82.64;101445.81;5014609;28;20102;-63
2022/09/02 06:26:25;;;;;;;0.45;0.40;;;;;;;16.27;82.10;101441.19;5028703;28;20187;-63
2022/09/02 06:28:51;;;;;;;1.13;0.50;;;;;;;16.31;81.88;101435.78;5011473;28;20108;-63
2022/09/02 06:31:19;;;;;;;0.43;0.43;;;;;;;16.40;82.07;101441.66;5029587;28;20062;-63
2022/09/02 06:34:07;;;;;;;0.57;0.32;;;;;;;16.53;82.35;101437.53;5010809;28;20038;-63
2022/09/02 06:36:34;;;;;;;0.77;0.70;;;;;;;16.71;82.29;101434.97;4951784;28;20090;-63
2022/09/02 06:39:00;;;;;;;0.63;0.57;;;;;;;16.99;81.63;101444.13;4967819;28;20039;-63
2022/09/02 06:41:32;;;;;;;1.75;0.40;;;;;;;17.34;80.63;101440.06;4965107;28;20348;-63
2022/09/02 06:44:02;;;;;;;0.47;0.40;;;;;;;17.52;79.00;101444.47;4967664;28;20041;-63
2022/09/02 06:46:34;;;;;;;0.30;0.30;;;;;;;17.86;77.85;101437.63;4946051;28;20034;-63
2022/09/02 06:49:04;;;;;;;0.77;0.32;;;;;;;18.14;76.04;101439.63;4964695;28;20344;-64
2022/09/02 06:51:33;;;;;;;0.52;0.40;;;;;;;18.44;74.93;101445.56;4948243;28;20133;-64
2022/09/02 06:54:01;;;;;;;0.40;0.40;;;;;;;18.70;73.67;101441.66;4966468;28;20054;-64
2022/09/02 06:56:31;;;;;;;0.80;0.50;;;;;;;18.64;71.90;101443.25;4961580;28;20290;-63
2022/09/02 06:58:57;;;;;;;1.38;0.50;;;;;;;18.93;72.05;101442.03;4966600;28;20054;-63
2022/09/02 07:01:35;;;;;;;0.60;0.30;;;;;;;19.16;70.37;101438.91;4952957;28;20038;-64
2022/09/02 07:06:51;;;;;;;0.77;0.32;;;;;;;19.76;68.25;101440.25;4959458;28;20047;-63
2022/09/02 07:09:21;;;;;;;0.35;0.30;;;;;;;19.85;66.87;101444.53;4964997;28;20038;-64
2022/09/02 07:11:49;;;;;;;0.30;0.30;;;;;;;20.11;66.39;101450.25;4967031;28;20070;-64
2022/09/02 07:14:18;;;;;;;0.55;0.47;;;;;;;20.37;64.87;101438.78;4997993;28;20521;-64
2022/09/02 07:16:50;;;;;;;0.60;0.30;;;;;;;20.39;63.65;101446.59;5024297;28;20034;-64
2022/09/02 07:19:18;;;;;;;0.25;0.20;;;;;;;20.50;64.01;101447.28;5027934;28;20029;-64
2022/09/02 07:21:44;;;;;;;0.43;0.43;;;;;;;20.66;63.00;101444.81;5009245;28;20033;-64
2022/09/02 07:24:13;;;;;;;0.75;0.30;;;;;;;20.89;62.63;101445.00;5006471;28;20025;-64
2022/09/02 07:26:40;;;;;;;0.45;0.30;;;;;;;21.00;61.88;101442.16;5006495;28;20029;-64
2022/09/02 07:29:08;;;;;;;4.78;0.40;;;;;;;21.12;61.63;101436.19;5015614;28;20120;-64
2022/09/02 07:31:35;;;;;;;0.38;0.28;;;;;;;21.23;61.02;101434.13;5023086;28;20025;-64
2022/09/02 07:34:04;;;;;;;0.35;0.30;;;;;;;21.41;60.30;101432.75;5001582;28;20034;-63
2022/09/02 07:36:30;;;;;;;0.52;0.30;;;;;;;21.50;59.11;101443.97;5025813;28;20112;-63
2022/09/02 07:38:57;;;;;;;0.57;0.52;;;;;;;21.52;59.05;101444.34;5014822;28;20025;-63
2022/09/02 07:41:23;;;;;;;0.20;0.20;;;;;;;21.58;59.04;101448.19;5003769;28;20120;-63
2022/09/02 07:43:49;;;;;;;0.38;0.20;;;;;;;21.84;56.91;101437.72;5010314;28;20433;-64
2022/09/02 07:46:14;;;;;;;0.55;0.20;;;;;;;21.91;56.30;101438.41;5009913;28;20044;-64
2022/09/02 07:48:41;;;;;;;0.43;0.20;;;;;;;22.03;55.52;101434.31;5028007;28;20045;-64
2022/09/02 07:51:07;;;;;;;0.20;0.20;;;;;;;22.11;56.96;101435.78;4986513;28;20482;-64
2022/09/02 07:53:35;;;;;;;0.40;0.22;;;;;;;22.37;57.17;101429.53;5021826;28;20673;-64
2022/09/02 07:56:02;;;;;;;0.30;0.30;;;;;;;22.62;55.75;101429.94;5010593;28;20108;-64
2022/09/02 07:58:28;;;;;;;0.40;0.10;;;;;;;22.43;54.17;101436.09;5006546;28;20497;-64
2022/09/02 08:00:55;;;;;;;0.30;0.22;;;;;;;22.68;53.99;101436.50;5008934;28;20098;-64
2022/09/02 08:03:23;;;;;;;0.40;0.30;;;;;;;22.61;53.60;101430.34;5023799;28;20056;-63
2022/09/02 08:05:54;;;;;;;0.20;0.20;;;;;;;22.75;53.49;101433.63;5028186;28;20077;-64
2022/09/02 08:08:20;;;;;;;0.20;0.20;;;;;;;22.79;53.71;101434.34;5029561;28;20033;-64
2022/09/02 08:10:48;;;;;;;0.47;0.30;;;;;;;23.11;53.19;101436.53;5024907;28;20035;-63
2022/09/02 08:13:15;;;;;;;0.73;0.20;;;;;;;23.06;52.37;101431.50;5016150;28;20072;-63
2022/09/02 08:15:41;;;;;;;0.35;0.30;;;;;;;23.22;51.58;101435.13;5005916;28;20540;-64
2022/09/02 08:18:06;;;;;;;1.23;0.20;;;;;;;23.51;51.51;101432.63;5026794;28;20041;-64
2022/09/02 08:20:33;;;;;;;0.40;0.20;;;;;;;23.83;51.07;101440.19;5021368;28;20045;-63
2022/09/02 08:22:58;;;;;;;0.15;0.15;;;;;;;23.71;50.11;101430.63;5027397;28;20034;-64
2022/09/02 08:25:24;;;;;;;1.42;0.30;;;;;;;23.50;50.83;101435.81;4988059;28;20044;-64
2022/09/02 08:27:52;;;;;;;0.30;0.15;;;;;;;23.87;50.71;101436.16;5008482;28;20706;-64
2022/09/02 08:30:17;;;;;;;0.55;0.20;;;;;;;24.11;49.32;101437.63;5014718;28;20129;-64
2022/09/02 08:32:43;;;;;;;0.40;0.20;;;;;;;24.03;48.68;101430.75;5022619;28;20115;-64
2022/09/02 08:35:09;;;;;;;0.10;0.10;;;;;;;24.18;49.17;101436.69;5026755;28;20088;-64
2022/09/02 08:37:36;;;;;;;0.20;0.20;;;;;;;24.42;48.73;101424.31;5027417;28;20117;-64
2022/09/02 08:40:05;;;;;;;0.30;0.30;;;;;;;24.65;47.97;101424.13;5006636;28;20486;-64
2022/09/02 08:42:37;;;;;;;2.40;0.20;;;;;;;24.79;47.79;101426.56;5024566;28;20029;-64
2022/09/02 08:45:11;;;;;;;0.30;0.20;;;;;;;24.97;47.11;101429.63;5022346;28;20053;-64
2022/09/02 08:47:39;;;;;;;0.10;0.10;;;;;;;25.07;46.50;101421.50;5023288;28;20029;-64
2022/09/02 08:50:13;;;;;;;0.13;0.10;;;;;;;24.99;46.35;101429.97;5024973;28;20397;-64
2022/09/02 08:52:46;;;;;;;0.22;0.15;;;;;;;25.35;46.62;101423.47;5025889;28;20033;-64
2022/09/02 08:55:20;;;;;;;0.20;0.20;;;;;;;25.45;45.12;101427.97;5027331;28;20033;-64
2022/09/02 08:57:45;;;;;;;0.20;0.10;;;;;;;25.45;45.28;101428.75;5028119;28;20371;-64
2022/09/02 09:00:12;;;;;;;1.30;0.25;;;;;;;25.50;45.62;101427.41;5029219;28;20064;-64
2022/09/02 09:02:55;;;;;;;0.30;0.20;;;;;;;25.77;45.52;101420.28;5025976;28;20091;-64
2022/09/02 09:05:50;;;;;;;0.40;0.20;;;;;;;25.93;44.02;101433.22;5029251;28;20065;-64
2022/09/02 09:08:42;;;;;;;0.65;0.20;;;;;;;26.05;44.87;101431.69;5028193;28;20041;-65
2022/09/02 09:11:20;;;;;;;0.10;0.10;;;;;;;26.06;43.58;101424.97;5023525;28;20117;-65
2022/09/02 09:14:07;;;;;;;2.58;0.30;;;;;;;26.17;43.99;101412.38;5022237;28;20033;-65
2022/09/02 09:16:45;;;;;;;0.32;0.20;;;;;;;26.41;43.56;101421.84;5018604;28;20402;-65
2022/09/02 09:19:21;;;;;;;0.20;0.20;;;;;;;26.52;43.13;101413.19;5023111;28;20083;-65
2022/09/02 09:21:46;;;;;;;1.25;0.30;;;;;;;26.65;43.08;101414.72;5008514;28;20398;-65
2022/09/02 09:24:24;;;;;;;0.20;0.20;;;;;;;26.76;42.72;101412.41;5025989;28;20112;-65
2022/09/02 09:26:49;;;;;;;0.35;0.30;;;;;;;26.85;42.91;101413.72;5029533;28;20253;-65
2022/09/02 09:29:15;;;;;;;0.73;0.35;;;;;;;26.91;42.25;101411.91;5011827;28;20033;-65
2022/09/02 09:31:40;;;;;;;0.22;0.22;;;;;;;27.03;42.07;101400.03;5030624;28;20082;-64
2022/09/02 09:34:11;;;;;;;0.32;0.30;;;;;;;26.50;42.61;101390.78;5011348;28;20033;-64
2022/09/02 09:36:39;;;;;;;1.98;0.20;;;;;;;26.79;42.06;101385.84;5028282;28;20053;-64
2022/09/02 09:39:30;;;;;;;2.25;0.20;;;;;;;27.09;41.91;101392.69;5028988;28;20044;-64
2022/09/02 09:42:11;;;;;;;0.20;0.20;;;;;;;27.12;41.54;101391.81;5026461;28;20100;-64
2022/09/02 09:44:43;;;;;;;1.15;0.25;;;;;;;27.09;42.12;101389.94;5020281;28;20070;-64
2022/09/02 09:47:19;;;;;;;0.20;0.20;;;;;;;27.05;41.94;101375.44;5027129;28;20403;-64
2022/09/02 09:49:50;;;;;;;0.20;0.20;;;;;;;27.17;42.39;101383.69;5006401;28;20056;-64
2022/09/02 09:52:42;;;;;;;0.28;0.17;;;;;;;27.41;41.89;101384.03;5024101;28;20065;-65
2022/09/02 09:55:10;;;;;;;0.32;0.20;;;;;;;27.53;41.08;101385.94;5020304;28;20077;-64
2022/09/02 09:57:37;;;;;;;0.30;0.30;;;;;;;27.30;40.69;101384.38;5026353;28;20134;-64
2022/09/02 10:00:31;;;;;;;0.45;0.20;;;;;;;27.51;41.45;101375.31;5023055;28;20060;-66
2022/09/02 10:03:04;;;;;;;0.50;0.30;;;;;;;27.65;41.00;101382.31;5020743;28;20541;-65
2022/09/02 10:05:38;;;;;;;0.20;0.20;;;;;;;27.94;41.10;101385.53;5003980;28;20041;-66
2022/09/02 10:08:18;;;;;;;0.20;0.20;;;;;;;28.05;39.75;101374.78;5026111;28;20037;-65
2022/09/02 10:11:02;;;;;;;0.10;0.10;;;;;;;28.20;40.45;101370.22;5029510;28;20033;-65
2022/09/02 10:13:32;;;;;;;0.30;0.20;;;;;;;28.57;40.49;101365.56;5023402;28;20044;-66
2022/09/02 10:16:24;;;;;;;0.20;0.20;;;;;;;28.55;39.95;101361.69;5024309;28;20071;-66
2022/09/02 10:18:55;;;;;;;0.70;0.20;;;;;;;28.55;39.91;101350.59;5025527;28;20112;-65
2022/09/02 10:21:58;;;;;;;0.10;0.10;;;;;;;28.33;39.61;101356.25;5008958;28;20128;-65
2022/09/02 10:24:26;;;;;;;0.30;0.30;;;;;;;28.27;39.19;101347.75;5025622;28;20029;-65
2022/09/02 10:26:56;;;;;;;0.47;0.20;;;;;;;28.38;38.64;101353.63;5024948;28;20488;-66
2022/09/02 10:29:45;;;;;;;0.20;0.20;;;;;;;28.69;38.67;101359.06;5027814;28;20041;-65
2022/09/02 10:32:29;;;;;;;0.40;0.28;;;;;;;28.34;38.36;101350.22;5023090;28;20033;-66
2022/09/02 10:35:16;;;;;;;0.38;0.20;;;;;;;28.56;38.63;101350.13;5027301;28;20396;-64
2022/09/02 10:38:06;;;;;;;0.50;0.25;;;;;;;28.64;38.48;101345.03;5021501;28;20463;-65
2022/09/02 10:40:41;;;;;;;0.30;0.30;;;;;;;28.52;38.61;101344.72;5025956;28;20041;-65
2022/09/02 10:43:28;;;;;;;0.32;0.20;;;;;;;28.65;38.13;101349.38;5025743;28;20038;-65
2022/09/02 10:45:58;;;;;;;0.25;0.17;;;;;;;28.50;38.40;101341.63;5025621;28;20123;-65
2022/09/02 10:48:32;;;;;;;0.25;0.20;;;;;;;28.47;38.43;101330.69;5026004;28;20057;-64
2022/09/02 10:51:10;;;;;;;1.02;0.30;;;;;;;28.70;38.77;101332.09;5023955;28;20044;-64
2022/09/02 10:53:47;;;;;;;0.25;0.17;;;;;;;28.63;38.34;101335.94;5025353;28;20060;-64
2022/09/02 10:56:20;;;;;;;0.25;0.20;;;;;;;28.85;38.21;101319.91;5029106;28;20035;-63
2022/09/02 10:58:58;;;;;;;0.20;0.20;;;;;;;28.72;37.27;101321.31;5029363;28;20048;-64
2022/09/02 11:01:33;;;;;;;0.28;0.28;;;;;;;28.50;37.51;101325.00;5028741;28;20422;-64
2022/09/02 11:04:07;;;;;;;0.20;0.20;;;;;;;28.64;38.13;101315.31;5007985;28;20029;-63
2022/09/02 11:06:40;;;;;;;0.30;0.20;;;;;;;28.92;37.85;101324.41;5028418;28;20429;-63
2022/09/02 11:09:20;;;;;;;0.30;0.20;;;;;;;28.11;37.92;101320.31;5000973;28;20030;-64
2022/09/02 11:11:52;;;;;;;0.82;0.20;;;;;;;28.35;37.06;101312.97;5029406;28;20040;-64
2022/09/02 11:14:40;;;;;;;0.10;0.10;;;;;;;28.36;36.72;101308.19;5022683;28;20127;-64
2022/09/02 11:17:46;;;;;;;0.20;0.20;;;;;;;28.41;37.59;101310.34;5023036;28;20034;-63
2022/09/02 11:20:34;;;;;;;0.22;0.22;;;;;;;28.45;38.12;101310.97;5022384;28;20099;-64
2022/09/02 11:23:21;;;;;;;0.10;0.10;;;;;;;28.48;38.02;101302.50;5023675;28;20145;-63
2022/09/02 11:25:56;;;;;;;0.30;0.20;;;;;;;28.70;37.90;101291.28;5022061;28;20468;-64
2022/09/02 11:28:34;;;;;;;0.10;0.10;;;;;;;28.91;37.56;101295.88;5024978;28;20033;-64
2022/09/02 11:31:28;;;;;;;0.80;0.20;;;;;;;29.05;36.80;101295.22;5021779;28;20129;-64
2022/09/02 11:34:04;;;;;;;0.22;0.20;;;;;;;29.02;36.83;101289.81;5000190;28;20050;-64
2022/09/02 11:36:29;;;;;;;0.20;0.20;;;;;;;28.90;36.66;101293.56;5019855;28;20490;-64
2022/09/02 11:39:07;;;;;;;0.47;0.20;;;;;;;28.49;37.90;101286.66;5018560;28;21388;-64
2022/09/02 11:41:50;;;;;;;0.30;0.20;;;;;;;28.68;37.94;101287.41;5023771;28;20041;-63